Storm Events Database

Event Details

Event Hail
Magnitude 0.75 in.
State KENTUCKY
County/Area CHRISTIAN
WFO PAH
Report Source Trained Spotter
NCDC Data Source CSV
Begin Date 2012-03-02 15:20:00.0 CST-6
Begin Location 0N CROFTON
Begin Lat/Lon 37.05/-87.48
End Date 2012-03-02 15:20:00.0 CST-6
Deaths Direct/Indirect 0/0 (fatality details below, when available...)
Injuries Direct/Indirect 0/0
Property Damage 0.00K
Crop Damage 0.00K
Episode Narrative Supercells developed across western Kentucky. The supercells raced east-northeast at 50 to 60 mph as a strong storm system moved northeast from Oklahoma to lower Michigan with it's associated cold front sweeping east across the Ohio and Tennessee valleys. Strong wind shear with the storm system combined with warm, moist and unstable air provided the fuel for supercell thunderstorms.
Event Narrative


     ‚Äč



All events for this episode:

Location County/Zone St. Date Time T.Z. Type Mag Dth Inj PrD CrD
Totals: 0 1 450.00K 0.00K
ZION HENDERSON CO. KY 03/02/2012 12:52 CST-6 Funnel Cloud 0 0 0.00K 0.00K
WEST LOUISVILLE DAVIESS CO. KY 03/02/2012 13:00 CST-6 Funnel Cloud 0 0 0.00K 0.00K
CLAY WEBSTER CO. KY 03/02/2012 13:04 CST-6 Funnel Cloud 0 0 0.00K 0.00K
OWENSBORO DAVIESS CO. KY 03/02/2012 13:19 CST-6 Funnel Cloud 0 0 0.00K 0.00K
OWENSBORO DAVIESS CO. KY 03/02/2012 13:21 CST-6 Hail 1.00 in. 0 0 0.00K 0.00K
DOYLE DAVIESS CO. KY 03/02/2012 13:25 CST-6 Hail 0.88 in. 0 0 0.00K 0.00K
OWENSBORO DAVIESS CO. KY 03/02/2012 13:25 CST-6 Thunderstorm Wind 66 kts. MG 0 0 0.00K 0.00K
LITTLE CYPRESS MARSHALL CO. KY 03/02/2012 13:30 CST-6 Thunderstorm Wind 55 kts. EG 0 0 10.00K 0.00K
MAXON MCCRACKEN CO. KY 03/02/2012 13:33 CST-6 Thunderstorm Wind 51 kts. MG 0 0 0.00K 0.00K
CHAPMAN UNION CO. KY 03/02/2012 13:38 CST-6 Tornado EF2 0 1 0.00K 0.00K
MAXON MCCRACKEN CO. KY 03/02/2012 13:38 CST-6 Thunderstorm Wind 75 kts. EG 0 0 30.00K 0.00K
MORGANFIELD UNION CO. KY 03/02/2012 13:40 CST-6 Hail 1.75 in. 0 0 0.00K 0.00K
FUTRELL MCCRACKEN CO. KY 03/02/2012 13:41 CST-6 Funnel Cloud 0 0 0.00K 0.00K
FUTRELL MCCRACKEN CO. KY 03/02/2012 13:43 CST-6 Hail 1.00 in. 0 0 0.00K 0.00K
HENDERSON ARPT HENDERSON CO. KY 03/02/2012 13:49 CST-6 Funnel Cloud 0 0 0.00K 0.00K
SMITHLAND LIVINGSTON CO. KY 03/02/2012 13:52 CST-6 Hail 1.00 in. 0 0 0.00K 0.00K
ZION HENDERSON CO. KY 03/02/2012 13:52 CST-6 Funnel Cloud 0 0 0.00K 0.00K
FUTRELL MCCRACKEN CO. KY 03/02/2012 13:55 CST-6 Thunderstorm Wind 61 kts. EG 0 0 0.00K 0.00K
ROCK SPGS HENDERSON CO. KY 03/02/2012 13:55 CST-6 Tornado EF0 0 0 50.00K 0.00K
WILSON HENDERSON CO. KY 03/02/2012 13:55 CST-6 Hail 1.75 in. 0 0 0.00K 0.00K
HENDERSON HENDERSON CO. KY 03/02/2012 13:59 CST-6 Hail 0.75 in. 0 0 0.00K 0.00K
HENDERSON HENDERSON CO. KY 03/02/2012 14:00 CST-6 Hail 1.75 in. 0 0 0.00K 0.00K
WEST LOUISVILLE DAVIESS CO. KY 03/02/2012 14:00 CST-6 Funnel Cloud 0 0 0.00K 0.00K
HENDERSON HENDERSON CO. KY 03/02/2012 14:02 CST-6 Hail 1.75 in. 0 0 0.00K 0.00K
CLAY WEBSTER CO. KY 03/02/2012 14:04 CST-6 Funnel Cloud 0 0 0.00K 0.00K
DIXON WEBSTER CO. KY 03/02/2012 14:06 CST-6 Tornado EF0 0 0 0.00K 0.00K
CLAY WEBSTER CO. KY 03/02/2012 14:08 CST-6 Hail 1.75 in. 0 0 0.00K 0.00K
OWENSBORO DAVIESS CO. KY 03/02/2012 14:10 CST-6 Hail 0.75 in. 0 0 0.00K 0.00K
REIDLAND MCCRACKEN CO. KY 03/02/2012 14:10 CST-6 Thunderstorm Wind 60 kts. EG 0 0 5.00K 0.00K
CURDSVILLE DAVIESS CO. KY 03/02/2012 14:13 CST-6 Funnel Cloud 0 0 0.00K 0.00K
SALEM LIVINGSTON CO. KY 03/02/2012 14:15 CST-6 Hail 1.75 in. 0 0 0.00K 0.00K
OWENSBORO DAVIESS CO. KY 03/02/2012 14:21 CST-6 Hail 1.00 in. 0 0 0.00K 0.00K
BROWNWOOD MANOR DAVIESS CO. KY 03/02/2012 14:22 CST-6 Tornado EF0 0 0 0.00K 0.00K
DOYLE DAVIESS CO. KY 03/02/2012 14:25 CST-6 Hail 0.88 in. 0 0 0.00K 0.00K
ELBA MCLEAN CO. KY 03/02/2012 14:25 CST-6 Hail 1.25 in. 0 0 0.00K 0.00K
OWENSBORO DAVIESS CO. KY 03/02/2012 14:25 CST-6 Thunderstorm Wind 66 kts. MG 0 0 0.00K 0.00K
MADISONVILLE HOPKINS CO. KY 03/02/2012 14:35 CST-6 Hail 1.00 in. 0 0 0.00K 0.00K
MADISONVILLE HOPKINS CO. KY 03/02/2012 14:37 CST-6 Hail 1.75 in. 0 0 0.00K 0.00K
MADISONVILLE HOPKINS CO. KY 03/02/2012 14:37 CST-6 Thunderstorm Wind 60 kts. EG 0 0 25.00K 0.00K
SLAUGHTERS WEBSTER CO. KY 03/02/2012 14:39 CST-6 Hail 1.75 in. 0 0 0.00K 0.00K
MADISONVILLE HOPKINS CO. KY 03/02/2012 14:40 CST-6 Thunderstorm Wind 56 kts. MG 0 0 0.00K 0.00K
MADISONVILLE HOPKINS CO. KY 03/02/2012 14:40 CST-6 Thunderstorm Wind 70 kts. EG 0 0 30.00K 0.00K
BREMEN MUHLENBERG CO. KY 03/02/2012 14:44 CST-6 Funnel Cloud 0 0 0.00K 0.00K
EAST DIAMOND HOPKINS CO. KY 03/02/2012 14:44 CST-6 Thunderstorm Wind 52 kts. MG 0 0 0.00K 0.00K
BREMEN MUHLENBERG CO. KY 03/02/2012 14:50 CST-6 Thunderstorm Wind 65 kts. EG 0 0 30.00K 0.00K
CADIZ TRIGG CO. KY 03/02/2012 14:50 CST-6 Hail 1.75 in. 0 0 100.00K 0.00K
MILLPORT MUHLENBERG CO. KY 03/02/2012 14:50 CST-6 Thunderstorm Wind 50 kts. EG 0 0 10.00K 0.00K
BREMEN MUHLENBERG CO. KY 03/02/2012 14:51 CST-6 Thunderstorm Wind 61 kts. MG 0 0 0.00K 0.00K
BREMEN MUHLENBERG CO. KY 03/02/2012 14:52 CST-6 Thunderstorm Wind 70 kts. EG 0 0 50.00K 0.00K
LYNN CITY MUHLENBERG CO. KY 03/02/2012 14:52 CST-6 Thunderstorm Wind 70 kts. EG 0 0 50.00K 0.00K
BREMEN MUHLENBERG CO. KY 03/02/2012 14:53 CST-6 Thunderstorm Wind 60 kts. EG 0 0 30.00K 0.00K
CANTON TRIGG CO. KY 03/02/2012 14:55 CST-6 Thunderstorm Wind 61 kts. MG 0 0 0.00K 0.00K
GREENVILLE MUHLENBERG CO. KY 03/02/2012 14:56 CST-6 Thunderstorm Wind 52 kts. MG 0 0 0.00K 0.00K
MONTGOMERY TRIGG CO. KY 03/02/2012 14:57 CST-6 Thunderstorm Wind 55 kts. EG 0 0 30.00K 0.00K
MURRAY CALLOWAY CO. KY 03/02/2012 14:57 CST-6 Hail 0.88 in. 0 0 0.00K 0.00K
CROFTON CHRISTIAN CO. KY 03/02/2012 15:20 CST-6 Hail 0.75 in. 0 0 0.00K 0.00K
CROFTON CHRISTIAN CO. KY 03/02/2012 15:26 CST-6 Thunderstorm Wind 52 kts. EG 0 0 0.00K 0.00K
OAK GROVE CHRISTIAN CO. KY 03/02/2012 15:49 CST-6 Thunderstorm Wind 72 kts. MG 0 0 0.00K 0.00K
Totals: 0 1 450.00K 0.00K